Udo Maru — JM6522 — position and weather

sailwx.info

Track history (hours):
 
Tides and Currents Weather Stations Pressure Air Temp Water Temp Dewpoint Dewpoint Depression Visibility Wind Speed Wind Dir Waves Ship Positions

Udo Maru

Last reported at 2018-Feb-25 01:44 UTC. Time now 2018-Feb-25 02:03 UTC.
Position N 33°29' E 132°01'.

Length 87 m; draft 4.9 m.

Type: Cargo ship. MMSI: 431600499.

Date/timePositionNaut miles runAvg speedWind from/ knotsBaromVisibWave heightAir tempDewpointWater temp
2018-Feb-25 01:44N 33°29' E 132°01'210.6
2018-Feb-25 01:30N 33°28' E 131°58'510.7
2018-Feb-25 01:00N 33°25' E 131°53'610.7
2018-Feb-25 00:29N 33°22' E 131°47'511.0
2018-Feb-25 00:00N 33°19' E 131°42'4 0.3
2018-Feb-24 13:47N 33°16' E 131°40'0 1.4
2018-Feb-24 13:30N 33°16' E 131°40'3 5.1
2018-Feb-24 13:00N 33°19' E 131°40'4 9.1
2018-Feb-24 12:30N 33°23' E 131°42'0 0.0
2018-Feb-24 11:55N 33°23' E 131°42'0 0.1
2018-Feb-24 11:30N 33°23' E 131°42'0 0.0
2018-Feb-24 10:59N 33°23' E 131°42'0 0.0
2018-Feb-24 10:29N 33°23' E 131°42'0 0.0
2018-Feb-24 10:00N 33°23' E 131°42'0 0.0
2018-Feb-24 09:29N 33°23' E 131°42'0 0.0
2018-Feb-24 08:59N 33°23' E 131°42'0 0.1
2018-Feb-24 08:30N 33°23' E 131°42'0 0.0
2018-Feb-24 08:00N 33°23' E 131°42'0 0.0
2018-Feb-24 07:30N 33°23' E 131°42'0 0.0
2018-Feb-24 07:00N 33°23' E 131°42'0 0.0
2018-Feb-24 06:30N 33°23' E 131°42'0 0.0
2018-Feb-24 06:00N 33°23' E 131°42'0 0.0
2018-Feb-24 05:30N 33°23' E 131°42'0 0.0
2018-Feb-24 05:00N 33°23' E 131°42'0 0.0
2018-Feb-24 04:30N 33°23' E 131°42'0 0.0
2018-Feb-24 04:00N 33°23' E 131°42'0 0.0
2018-Feb-24 03:30N 33°23' E 131°42'0 0.1
2018-Feb-24 02:58N 33°23' E 131°42'0 0.0
2018-Feb-24 02:29N 33°23' E 131°42'0 0.0
2018-Feb-24 01:51N 33°23' E 131°42'0 0.0
2018-Feb-24 01:28N 33°23' E 131°42'3 6.2
2018-Feb-24 00:57N 33°24' E 131°46'612.4
2018-Feb-24 00:30N 33°27' E 131°52'1312.6
2018-Feb-23 23:30N 33°34' E 132°04'713.1
2018-Feb-23 22:59N 33°37' E 132°11'713.0
2018-Feb-23 22:28N 33°41' E 132°18'712.9
2018-Feb-23 21:58N 33°44' E 132°25'612.8
2018-Feb-23 21:29N 33°48' E 132°31'612.6
2018-Feb-23 20:58N 33°53' E 132°36'612.4
2018-Feb-23 20:30N 33°57' E 132°41'8210.9
2018-Feb-23 12:58N 34°24' E 134°15'612.3
2018-Feb-23 12:30N 34°25' E 134°22'612.4
2018-Feb-23 12:01N 34°27' E 134°28'612.3
2018-Feb-23 11:31N 34°29' E 134°35'611.8
2018-Feb-23 11:00N 34°32' E 134°42'611.4
2018-Feb-23 10:30N 34°34' E 134°48'510.3
2018-Feb-23 10:00N 34°36' E 134°54'510.0
2018-Feb-23 09:30N 34°37' E 134°60'5 9.5
2018-Feb-23 09:00N 34°35' E 135°05'612.3
2018-Feb-23 08:30N 34°36' E 135°13'612.0
2018-Feb-23 08:01N 34°36' E 135°20'611.2
2018-Feb-23 07:31N 34°35' E 135°26'1 1.3
2018-Feb-23 06:58N 34°35' E 135°27'0 0.0
2018-Feb-23 06:28N 34°35' E 135°27'0 0.0
2018-Feb-23 05:58N 34°35' E 135°27'0 0.0
2018-Feb-23 05:28N 34°35' E 135°27'0 0.0
2018-Feb-23 04:58N 34°35' E 135°27'0 0.0
2018-Feb-23 04:27N 34°35' E 135°27'0 0.0
2018-Feb-23 03:58N 34°35' E 135°27'0 0.0
2018-Feb-23 03:28N 34°35' E 135°27'0 0.0
2018-Feb-23 02:58N 34°35' E 135°27'0 0.0
2018-Feb-23 02:28N 34°35' E 135°27'0 0.0
2018-Feb-23 01:52N 34°35' E 135°27'0 0.0
2018-Feb-23 01:28N 34°35' E 135°27'0 0.0
2018-Feb-23 00:58N 34°35' E 135°27'0 0.0
2018-Feb-23 00:28N 34°35' E 135°27'0 0.0
2018-Feb-22 23:58N 34°35' E 135°27'0 0.0
2018-Feb-22 23:28N 34°35' E 135°27'0 0.0
2018-Feb-22 23:00N 34°35' E 135°27'1 2.0
2018-Feb-22 22:31N 34°35' E 135°26'5 9.4
2018-Feb-22 22:00N 34°36' E 135°20'2 3.1
2018-Feb-22 21:30N 34°35' E 135°18'0 0.0
2018-Feb-22 21:00N 34°35' E 135°18'0 0.1
2018-Feb-22 20:30N 34°35' E 135°18'4 8.7
2018-Feb-22 20:00N 34°32' E 135°15'511.0
2018-Feb-22 19:31N 34°27' E 135°11'611.1
2018-Feb-22 19:00N 34°23' E 135°07'510.9
2018-Feb-22 18:30N 34°18' E 135°04'4 7.7
2018-Feb-22 18:00N 34°14' E 135°06'1 2.6
2018-Feb-22 17:29N 34°15' E 135°07'0 0.0
2018-Feb-22 16:59N 34°15' E 135°07'0 0.0
2018-Feb-22 16:29N 34°15' E 135°07'0 0.0
2018-Feb-22 15:59N 34°15' E 135°07'0 0.0
2018-Feb-22 15:29N 34°15' E 135°07'0 0.0
2018-Feb-22 14:59N 34°15' E 135°07'0 0.0
2018-Feb-22 14:29N 34°15' E 135°07'0 0.0
2018-Feb-22 13:59N 34°15' E 135°07'0 0.1
2018-Feb-22 13:29N 34°15' E 135°07'0 0.0
2018-Feb-22 12:59N 34°15' E 135°07'0 0.0
2018-Feb-22 12:29N 34°15' E 135°07'0 0.0
2018-Feb-22 11:59N 34°15' E 135°07'0 0.0
2018-Feb-22 11:30N 34°15' E 135°07'0 0.0
2018-Feb-22 11:00N 34°15' E 135°07'1 1.6
2018-Feb-22 10:30N 34°15' E 135°06'0 0.1
2018-Feb-22 10:00N 34°15' E 135°06'0 0.0
2018-Feb-22 09:30N 34°15' E 135°06'0 0.1
2018-Feb-22 09:00N 34°15' E 135°06'0 0.0
2018-Feb-22 08:30N 34°15' E 135°06'0 0.0
2018-Feb-22 08:00N 34°15' E 135°06'0 0.0
2018-Feb-22 07:30N 34°15' E 135°06'0 0.0
2018-Feb-22 07:00N 34°15' E 135°06'0 0.0
2018-Feb-22 06:30N 34°15' E 135°06'0 0.0
2018-Feb-22 06:00N 34°15' E 135°06'0 0.0
2018-Feb-22 05:30N 34°15' E 135°06'0 0.0
2018-Feb-22 05:00N 34°15' E 135°06'0 0.0
2018-Feb-22 04:30N 34°15' E 135°06'0 0.0
2018-Feb-22 04:00N 34°15' E 135°06'0 0.0
2018-Feb-22 03:30N 34°15' E 135°06'0 0.1
2018-Feb-22 02:57N 34°15' E 135°06'0 0.0
2018-Feb-22 02:30N 34°15' E 135°06'0 0.0
2018-Feb-22 02:00N 34°15' E 135°06'0 0.0
2018-Feb-22 01:30N 34°15' E 135°06'0 0.0
2018-Feb-22 01:00N 34°15' E 135°06'1 1.8
2018-Feb-22 00:30N 34°15' E 135°07'0 0.0
2018-Feb-22 00:00N 34°15' E 135°07'0 0.0
2018-Feb-21 23:30N 34°15' E 135°07'0 0.0
2018-Feb-21 23:00N 34°15' E 135°07'0 0.0
2018-Feb-21 22:30N 34°15' E 135°07'0 0.0
2018-Feb-21 22:00N 34°15' E 135°07'0 0.0
2018-Feb-21 21:30N 34°15' E 135°07'0 0.0
2018-Feb-21 21:00N 34°15' E 135°07'0 0.0
2018-Feb-21 20:30N 34°15' E 135°07'0 0.0
2018-Feb-21 20:00N 34°15' E 135°07'0 0.0
2018-Feb-21 19:30N 34°15' E 135°07'0 0.0
2018-Feb-21 19:00N 34°15' E 135°07'0 0.0
2018-Feb-21 18:30N 34°15' E 135°07'0 0.0
2018-Feb-21 18:00N 34°15' E 135°07'0 0.0
2018-Feb-21 17:30N 34°15' E 135°07'0 0.0
2018-Feb-21 17:00N 34°15' E 135°07'0 0.0
2018-Feb-21 16:30N 34°15' E 135°07'0 0.0
2018-Feb-21 16:00N 34°15' E 135°07'0 0.0
2018-Feb-21 15:30N 34°15' E 135°07'0 0.0
2018-Feb-21 15:00N 34°15' E 135°07'0 0.0
2018-Feb-21 14:30N 34°15' E 135°07'0 0.0
2018-Feb-21 14:00N 34°15' E 135°07'0 0.0
2018-Feb-21 13:30N 34°15' E 135°07'0 0.0
2018-Feb-21 13:00N 34°15' E 135°07'0 0.0
2018-Feb-21 12:30N 34°15' E 135°07'0 0.0
2018-Feb-21 12:00N 34°15' E 135°07'0 0.0
2018-Feb-21 11:30N 34°15' E 135°07'0 0.0
2018-Feb-21 11:00N 34°15' E 135°07'0 0.0
2018-Feb-21 10:30N 34°15' E 135°07'0 0.0
2018-Feb-21 10:00N 34°15' E 135°07'0 0.0
2018-Feb-21 09:30N 34°15' E 135°07'0 0.0
2018-Feb-21 09:00N 34°15' E 135°07'0 0.0
2018-Feb-21 08:30N 34°15' E 135°07'0 0.0
2018-Feb-21 08:00N 34°15' E 135°07'0 0.0
2018-Feb-21 07:30N 34°15' E 135°07'0 0.0
2018-Feb-21 07:00N 34°15' E 135°07'0 0.0
2018-Feb-21 06:29N 34°15' E 135°07'0 0.0
2018-Feb-21 06:00N 34°15' E 135°07'0 0.0
2018-Feb-21 05:30N 34°15' E 135°07'0 0.0
2018-Feb-21 05:00N 34°15' E 135°07'0 0.0
2018-Feb-21 04:30N 34°15' E 135°07'0 0.0
2018-Feb-21 04:00N 34°15' E 135°07'0 0.0
2018-Feb-21 03:30N 34°15' E 135°07'0 0.0
2018-Feb-21 03:00N 34°15' E 135°07'0 0.0
2018-Feb-21 02:30N 34°15' E 135°07'0 0.0
2018-Feb-21 02:00N 34°15' E 135°07'0 0.0
2018-Feb-21 01:30N 34°15' E 135°07'0 0.0
2018-Feb-21 01:00N 34°15' E 135°07'0 0.0
2018-Feb-21 00:30N 34°15' E 135°07'0 0.9
2018-Feb-21 00:00N 34°14' E 135°07'4 7.8
2018-Feb-20 23:31N 34°11' E 135°04'611.2
2018-Feb-20 23:00N 34°05' E 135°03'611.2
2018-Feb-20 22:30N 33°60' E 135°03'511.1
2018-Feb-20 22:00N 33°54' E 135°02'510.7
2018-Feb-20 21:30N 33°49' E 135°05'163 9.3
2018-Feb-20 04:03N 34°31' E 138°15'110.2
2018-Feb-20 03:59N 34°31' E 138°16'610.9
2018-Feb-20 03:28N 34°32' E 138°22'810.7
2018-Feb-20 02:43N 34°34' E 138°32'410.6
2018-Feb-20 02:21N 34°34' E 138°37'511.0
2018-Feb-20 01:52N 34°35' E 138°43'410.9
2018-Feb-20 01:30N 34°35' E 138°48'611.4
2018-Feb-20 00:59N 34°36' E 138°55'611.5
2018-Feb-20 00:28N 34°38' E 139°01'612.3
2018-Feb-20 00:01N 34°42' E 139°07'611.8
2018-Feb-19 23:31N 34°45' E 139°13'711.2
2018-Feb-19 22:55N 34°48' E 139°20'611.7
2018-Feb-19 22:25N 34°50' E 139°27'2710.6
2018-Feb-19 19:52N 34°53' E 139°59'4 9.4
2018-Feb-19 19:26N 34°56' E 140°03'810.3
2018-Feb-19 18:39N 35°00' E 140°12'0 0.0
2018-Feb-18 13:19N 35°01' E 140°11'511.1
2018-Feb-18 12:54N 34°58' E 140°07'1510.8
2018-Feb-18 11:30N 34°53' E 139°49'1111.7
2018-Feb-18 10:36N 35°02' E 139°44'112.1
2018-Feb-18 10:31N 35°03' E 139°44'612.4
2018-Feb-18 10:01N 35°09' E 139°46'612.5
2018-Feb-18 09:30N 35°15' E 139°46'612.1
2018-Feb-18 09:00N 35°21' E 139°43'611.1
2018-Feb-18 08:31N 35°26' E 139°45'612.5
2018-Feb-18 08:00N 35°30' E 139°51'612.7
2018-Feb-18 07:31N 35°35' E 139°56'610.2
2018-Feb-18 06:55N 35°41' E 139°57'0 0.0
2018-Feb-17 22:14N 35°40' E 139°57'2 8.1
2018-Feb-17 21:56N 35°38' E 139°59'1 0.9
2018-Feb-17 20:51N 35°37' E 139°58'0 0.0
2018-Feb-17 20:27N 35°37' E 139°58'0 0.0
2018-Feb-17 19:51N 35°37' E 139°58'0 0.0
2018-Feb-17 19:12N 35°37' E 139°58'0 0.0
2018-Feb-17 18:57N 35°37' E 139°58'0 0.0
2018-Feb-17 18:15N 35°37' E 139°58'0 0.0
2018-Feb-17 17:51N 35°37' E 139°58'0 0.0
2018-Feb-17 17:27N 35°37' E 139°58'0 0.0
2018-Feb-17 10:55N 35°37' E 139°58'2 5.3
2018-Feb-17 10:30N 35°35' E 139°57'510.3
2018-Feb-17 10:01N 35°31' E 139°53'510.2
2018-Feb-17 09:31N 35°27' E 139°50'510.3
2018-Feb-17 09:00N 35°23' E 139°46'5 9.8
2018-Feb-17 08:31N 35°18' E 139°45'510.5
2018-Feb-17 08:01N 35°13' E 139°47'510.6
2018-Feb-17 07:30N 35°08' E 139°46'510.4
2018-Feb-17 06:59N 35°03' E 139°42'611.4
2018-Feb-17 06:30N 34°60' E 139°37'1113.1
2018-Feb-17 05:40N 34°54' E 139°26'212.9
2018-Feb-17 05:29N 34°53' E 139°23'1013.0
2018-Feb-17 04:45N 34°47' E 139°14'313.2
2018-Feb-17 04:30N 34°45' E 139°11'712.6
2018-Feb-17 03:58N 34°40' E 139°05'511.7
2018-Feb-17 03:30N 34°37' E 139°00'712.0
2018-Feb-17 02:56N 34°35' E 138°52'611.9
2018-Feb-17 02:24N 34°34' E 138°45'511.9
2018-Feb-17 02:00N 34°34' E 138°39'611.7
2018-Feb-17 01:27N 34°34' E 138°31'911.7
2018-Feb-17 00:40N 34°34' E 138°20'312.4
2018-Feb-17 00:26N 34°34' E 138°16'812.7
2018-Feb-16 23:50N 34°34' E 138°07'412.1
2018-Feb-16 23:30N 34°35' E 138°02'611.6
2018-Feb-16 23:00N 34°35' E 137°55'2811.0
2018-Feb-16 20:26N 34°34' E 137°21'511.3
2018-Feb-16 20:01N 34°34' E 137°15'3310.9
2018-Feb-16 16:57N 34°09' E 136°48'87 8.7
2018-Feb-16 06:59N 33°46' E 135°07'511.4
2018-Feb-16 06:31N 33°50' E 135°02'611.6
2018-Feb-16 06:00N 33°54' E 134°58'611.4
2018-Feb-16 05:30N 33°58' E 134°53'611.5
2018-Feb-16 05:00N 34°03' E 134°49'611.8
2018-Feb-16 04:30N 34°08' E 134°45'612.5
2018-Feb-16 04:00N 34°13' E 134°40'611.9
2018-Feb-16 03:30N 34°17' E 134°35'610.8
2018-Feb-16 02:58N 34°19' E 134°29'511.2
2018-Feb-16 02:31N 34°21' E 134°23'35 9.1
2018-Feb-15 22:41N 34°18' E 133°41'48 8.8
2018-Feb-15 17:12N 34°01' E 132°46'2 8.5
2018-Feb-15 17:00N 33°60' E 132°45'4 8.5
2018-Feb-15 16:30N 33°56' E 132°42'4 8.7
2018-Feb-15 16:00N 33°54' E 132°38'5 9.7
2018-Feb-15 15:28N 33°50' E 132°33'510.2
2018-Feb-15 15:00N 33°47' E 132°29'710.5
2018-Feb-15 14:23N 33°43' E 132°23'510.7
2018-Feb-15 13:53N 33°40' E 132°17'410.8
2018-Feb-15 13:30N 33°37' E 132°13'610.9
2018-Feb-15 12:55N 33°34' E 132°07'511.0
2018-Feb-15 12:30N 33°31' E 132°03'611.5
2018-Feb-15 11:58N 33°28' E 131°57'611.7
2018-Feb-15 11:30N 33°24' E 131°51'611.6
2018-Feb-15 11:00N 33°21' E 131°46'611.2
2018-Feb-15 10:29N 33°17' E 131°40'1 0.2
2018-Feb-15 02:14N 33°16' E 131°40'0 0.7
2018-Feb-15 02:00N 33°16' E 131°40'  
Track history (hours):
 
Tides and Currents Weather Stations Pressure Air Temp Water Temp Dewpoint Dewpoint Depression Visibility Wind Speed Wind Dir Waves Ship Positions

Udo Maru

Last reported at 2018-Feb-25 01:44 UTC. Time now 2018-Feb-25 02:03 UTC.
Position N 33°29' E 132°01'.

Length 87 m; draft 4.9 m.

Type: Cargo ship. MMSI: 431600499.

Date/timePositionNaut miles runAvg speedWind from/ knotsBaromVisibWave heightAir tempDewpointWater temp
2018-Feb-25 01:44N 33°29' E 132°01'210.6
2018-Feb-25 01:30N 33°28' E 131°58'510.7
2018-Feb-25 01:00N 33°25' E 131°53'610.7
2018-Feb-25 00:29N 33°22' E 131°47'511.0
2018-Feb-25 00:00N 33°19' E 131°42'4 0.3
2018-Feb-24 13:47N 33°16' E 131°40'0 1.4
2018-Feb-24 13:30N 33°16' E 131°40'3 5.1
2018-Feb-24 13:00N 33°19' E 131°40'4 9.1
2018-Feb-24 12:30N 33°23' E 131°42'0 0.0
2018-Feb-24 11:55N 33°23' E 131°42'0 0.1
2018-Feb-24 11:30N 33°23' E 131°42'0 0.0
2018-Feb-24 10:59N 33°23' E 131°42'0 0.0
2018-Feb-24 10:29N 33°23' E 131°42'0 0.0
2018-Feb-24 10:00N 33°23' E 131°42'0 0.0
2018-Feb-24 09:29N 33°23' E 131°42'0 0.0
2018-Feb-24 08:59N 33°23' E 131°42'0 0.1
2018-Feb-24 08:30N 33°23' E 131°42'0 0.0
2018-Feb-24 08:00N 33°23' E 131°42'0 0.0
2018-Feb-24 07:30N 33°23' E 131°42'0 0.0
2018-Feb-24 07:00N 33°23' E 131°42'0 0.0
2018-Feb-24 06:30N 33°23' E 131°42'0 0.0
2018-Feb-24 06:00N 33°23' E 131°42'0 0.0
2018-Feb-24 05:30N 33°23' E 131°42'0 0.0
2018-Feb-24 05:00N 33°23' E 131°42'0 0.0
2018-Feb-24 04:30N 33°23' E 131°42'0 0.0
2018-Feb-24 04:00N 33°23' E 131°42'0 0.0
2018-Feb-24 03:30N 33°23' E 131°42'0 0.1
2018-Feb-24 02:58N 33°23' E 131°42'0 0.0
2018-Feb-24 02:29N 33°23' E 131°42'0 0.0
2018-Feb-24 01:51N 33°23' E 131°42'0 0.0
2018-Feb-24 01:28N 33°23' E 131°42'3 6.2
2018-Feb-24 00:57N 33°24' E 131°46'612.4
2018-Feb-24 00:30N 33°27' E 131°52'1312.6
2018-Feb-23 23:30N 33°34' E 132°04'713.1
2018-Feb-23 22:59N 33°37' E 132°11'713.0
2018-Feb-23 22:28N 33°41' E 132°18'712.9
2018-Feb-23 21:58N 33°44' E 132°25'612.8
2018-Feb-23 21:29N 33°48' E 132°31'612.6
2018-Feb-23 20:58N 33°53' E 132°36'612.4
2018-Feb-23 20:30N 33°57' E 132°41'8210.9
2018-Feb-23 12:58N 34°24' E 134°15'612.3
2018-Feb-23 12:30N 34°25' E 134°22'612.4
2018-Feb-23 12:01N 34°27' E 134°28'612.3
2018-Feb-23 11:31N 34°29' E 134°35'611.8
2018-Feb-23 11:00N 34°32' E 134°42'611.4
2018-Feb-23 10:30N 34°34' E 134°48'510.3
2018-Feb-23 10:00N 34°36' E 134°54'510.0
2018-Feb-23 09:30N 34°37' E 134°60'5 9.5
2018-Feb-23 09:00N 34°35' E 135°05'612.3
2018-Feb-23 08:30N 34°36' E 135°13'612.0
2018-Feb-23 08:01N 34°36' E 135°20'611.2
2018-Feb-23 07:31N 34°35' E 135°26'1 1.3
2018-Feb-23 06:58N 34°35' E 135°27'0 0.0
2018-Feb-23 06:28N 34°35' E 135°27'0 0.0
2018-Feb-23 05:58N 34°35' E 135°27'0 0.0
2018-Feb-23 05:28N 34°35' E 135°27'0 0.0
2018-Feb-23 04:58N 34°35' E 135°27'0 0.0
2018-Feb-23 04:27N 34°35' E 135°27'0 0.0
2018-Feb-23 03:58N 34°35' E 135°27'0 0.0
2018-Feb-23 03:28N 34°35' E 135°27'0 0.0
2018-Feb-23 02:58N 34°35' E 135°27'0 0.0
2018-Feb-23 02:28N 34°35' E 135°27'0 0.0
2018-Feb-23 01:52N 34°35' E 135°27'0 0.0
2018-Feb-23 01:28N 34°35' E 135°27'0 0.0
2018-Feb-23 00:58N 34°35' E 135°27'0 0.0
2018-Feb-23 00:28N 34°35' E 135°27'0 0.0
2018-Feb-22 23:58N 34°35' E 135°27'0 0.0
2018-Feb-22 23:28N 34°35' E 135°27'0 0.0
2018-Feb-22 23:00N 34°35' E 135°27'1 2.0
2018-Feb-22 22:31N 34°35' E 135°26'5 9.4
2018-Feb-22 22:00N 34°36' E 135°20'2 3.1
2018-Feb-22 21:30N 34°35' E 135°18'0 0.0
2018-Feb-22 21:00N 34°35' E 135°18'0 0.1
2018-Feb-22 20:30N 34°35' E 135°18'4 8.7
2018-Feb-22 20:00N 34°32' E 135°15'511.0
2018-Feb-22 19:31N 34°27' E 135°11'611.1
2018-Feb-22 19:00N 34°23' E 135°07'510.9
2018-Feb-22 18:30N 34°18' E 135°04'4 7.7
2018-Feb-22 18:00N 34°14' E 135°06'1 2.6
2018-Feb-22 17:29N 34°15' E 135°07'0 0.0
2018-Feb-22 16:59N 34°15' E 135°07'0 0.0
2018-Feb-22 16:29N 34°15' E 135°07'0 0.0
2018-Feb-22 15:59N 34°15' E 135°07'0 0.0
2018-Feb-22 15:29N 34°15' E 135°07'0 0.0
2018-Feb-22 14:59N 34°15' E 135°07'0 0.0
2018-Feb-22 14:29N 34°15' E 135°07'0 0.0
2018-Feb-22 13:59N 34°15' E 135°07'0 0.1
2018-Feb-22 13:29N 34°15' E 135°07'0 0.0
2018-Feb-22 12:59N 34°15' E 135°07'0 0.0
2018-Feb-22 12:29N 34°15' E 135°07'0 0.0
2018-Feb-22 11:59N 34°15' E 135°07'0 0.0
2018-Feb-22 11:30N 34°15' E 135°07'0 0.0
2018-Feb-22 11:00N 34°15' E 135°07'1 1.6
2018-Feb-22 10:30N 34°15' E 135°06'0 0.1
2018-Feb-22 10:00N 34°15' E 135°06'0 0.0
2018-Feb-22 09:30N 34°15' E 135°06'0 0.1
2018-Feb-22 09:00N 34°15' E 135°06'0 0.0
2018-Feb-22 08:30N 34°15' E 135°06'0 0.0
2018-Feb-22 08:00N 34°15' E 135°06'0 0.0
2018-Feb-22 07:30N 34°15' E 135°06'0 0.0
2018-Feb-22 07:00N 34°15' E 135°06'0 0.0
2018-Feb-22 06:30N 34°15' E 135°06'0 0.0
2018-Feb-22 06:00N 34°15' E 135°06'0 0.0
2018-Feb-22 05:30N 34°15' E 135°06'0 0.0
2018-Feb-22 05:00N 34°15' E 135°06'0 0.0
2018-Feb-22 04:30N 34°15' E 135°06'0 0.0
2018-Feb-22 04:00N 34°15' E 135°06'0 0.0
2018-Feb-22 03:30N 34°15' E 135°06'0 0.1
2018-Feb-22 02:57N 34°15' E 135°06'0 0.0
2018-Feb-22 02:30N 34°15' E 135°06'0 0.0
2018-Feb-22 02:00N 34°15' E 135°06'0 0.0
2018-Feb-22 01:30N 34°15' E 135°06'0 0.0
2018-Feb-22 01:00N 34°15' E 135°06'1 1.8
2018-Feb-22 00:30N 34°15' E 135°07'0 0.0
2018-Feb-22 00:00N 34°15' E 135°07'0 0.0
2018-Feb-21 23:30N 34°15' E 135°07'0 0.0
2018-Feb-21 23:00N 34°15' E 135°07'0 0.0
2018-Feb-21 22:30N 34°15' E 135°07'0 0.0
2018-Feb-21 22:00N 34°15' E 135°07'0 0.0
2018-Feb-21 21:30N 34°15' E 135°07'0 0.0
2018-Feb-21 21:00N 34°15' E 135°07'0 0.0
2018-Feb-21 20:30N 34°15' E 135°07'0 0.0
2018-Feb-21 20:00N 34°15' E 135°07'0 0.0
2018-Feb-21 19:30N 34°15' E 135°07'0 0.0
2018-Feb-21 19:00N 34°15' E 135°07'0 0.0
2018-Feb-21 18:30N 34°15' E 135°07'0 0.0
2018-Feb-21 18:00N 34°15' E 135°07'0 0.0
2018-Feb-21 17:30N 34°15' E 135°07'0 0.0
2018-Feb-21 17:00N 34°15' E 135°07'0 0.0
2018-Feb-21 16:30N 34°15' E 135°07'0 0.0
2018-Feb-21 16:00N 34°15' E 135°07'0 0.0
2018-Feb-21 15:30N 34°15' E 135°07'0 0.0
2018-Feb-21 15:00N 34°15' E 135°07'0 0.0
2018-Feb-21 14:30N 34°15' E 135°07'0 0.0
2018-Feb-21 14:00N 34°15' E 135°07'0 0.0
2018-Feb-21 13:30N 34°15' E 135°07'0 0.0
2018-Feb-21 13:00N 34°15' E 135°07'0 0.0
2018-Feb-21 12:30N 34°15' E 135°07'0 0.0
2018-Feb-21 12:00N 34°15' E 135°07'0 0.0
2018-Feb-21 11:30N 34°15' E 135°07'0 0.0
2018-Feb-21 11:00N 34°15' E 135°07'0 0.0
2018-Feb-21 10:30N 34°15' E 135°07'0 0.0
2018-Feb-21 10:00N 34°15' E 135°07'0 0.0
2018-Feb-21 09:30N 34°15' E 135°07'0 0.0
2018-Feb-21 09:00N 34°15' E 135°07'0 0.0
2018-Feb-21 08:30N 34°15' E 135°07'0 0.0
2018-Feb-21 08:00N 34°15' E 135°07'0 0.0
2018-Feb-21 07:30N 34°15' E 135°07'0 0.0
2018-Feb-21 07:00N 34°15' E 135°07'0 0.0
2018-Feb-21 06:29N 34°15' E 135°07'0 0.0
2018-Feb-21 06:00N 34°15' E 135°07'0 0.0
2018-Feb-21 05:30N 34°15' E 135°07'0 0.0
2018-Feb-21 05:00N 34°15' E 135°07'0 0.0
2018-Feb-21 04:30N 34°15' E 135°07'0 0.0
2018-Feb-21 04:00N 34°15' E 135°07'0 0.0
2018-Feb-21 03:30N 34°15' E 135°07'0 0.0
2018-Feb-21 03:00N 34°15' E 135°07'0 0.0
2018-Feb-21 02:30N 34°15' E 135°07'0 0.0
2018-Feb-21 02:00N 34°15' E 135°07'0 0.0
2018-Feb-21 01:30N 34°15' E 135°07'0 0.0
2018-Feb-21 01:00N 34°15' E 135°07'0 0.0
2018-Feb-21 00:30N 34°15' E 135°07'0 0.9
2018-Feb-21 00:00N 34°14' E 135°07'4 7.8
2018-Feb-20 23:31N 34°11' E 135°04'611.2
2018-Feb-20 23:00N 34°05' E 135°03'611.2
2018-Feb-20 22:30N 33°60' E 135°03'511.1
2018-Feb-20 22:00N 33°54' E 135°02'510.7
2018-Feb-20 21:30N 33°49' E 135°05'163 9.3
2018-Feb-20 04:03N 34°31' E 138°15'110.2
2018-Feb-20 03:59N 34°31' E 138°16'610.9
2018-Feb-20 03:28N 34°32' E 138°22'810.7
2018-Feb-20 02:43N 34°34' E 138°32'410.6
2018-Feb-20 02:21N 34°34' E 138°37'511.0
2018-Feb-20 01:52N 34°35' E 138°43'410.9
2018-Feb-20 01:30N 34°35' E 138°48'611.4
2018-Feb-20 00:59N 34°36' E 138°55'611.5
2018-Feb-20 00:28N 34°38' E 139°01'612.3
2018-Feb-20 00:01N 34°42' E 139°07'611.8
2018-Feb-19 23:31N 34°45' E 139°13'711.2
2018-Feb-19 22:55N 34°48' E 139°20'611.7
2018-Feb-19 22:25N 34°50' E 139°27'2710.6
2018-Feb-19 19:52N 34°53' E 139°59'4 9.4
2018-Feb-19 19:26N 34°56' E 140°03'810.3
2018-Feb-19 18:39N 35°00' E 140°12'0 0.0
2018-Feb-18 13:19N 35°01' E 140°11'511.1
2018-Feb-18 12:54N 34°58' E 140°07'1510.8
2018-Feb-18 11:30N 34°53' E 139°49'1111.7
2018-Feb-18 10:36N 35°02' E 139°44'112.1
2018-Feb-18 10:31N 35°03' E 139°44'612.4
2018-Feb-18 10:01N 35°09' E 139°46'612.5
2018-Feb-18 09:30N 35°15' E 139°46'612.1
2018-Feb-18 09:00N 35°21' E 139°43'611.1
2018-Feb-18 08:31N 35°26' E 139°45'612.5
2018-Feb-18 08:00N 35°30' E 139°51'612.7
2018-Feb-18 07:31N 35°35' E 139°56'610.2
2018-Feb-18 06:55N 35°41' E 139°57'0 0.0
2018-Feb-17 22:14N 35°40' E 139°57'2 8.1
2018-Feb-17 21:56N 35°38' E 139°59'1 0.9
2018-Feb-17 20:51N 35°37' E 139°58'0 0.0
2018-Feb-17 20:27N 35°37' E 139°58'0 0.0
2018-Feb-17 19:51N 35°37' E 139°58'0 0.0
2018-Feb-17 19:12N 35°37' E 139°58'0 0.0
2018-Feb-17 18:57N 35°37' E 139°58'0 0.0
2018-Feb-17 18:15N 35°37' E 139°58'0 0.0
2018-Feb-17 17:51N 35°37' E 139°58'0 0.0
2018-Feb-17 17:27N 35°37' E 139°58'0 0.0
2018-Feb-17 10:55N 35°37' E 139°58'2 5.3
2018-Feb-17 10:30N 35°35' E 139°57'510.3
2018-Feb-17 10:01N 35°31' E 139°53'510.2
2018-Feb-17 09:31N 35°27' E 139°50'510.3
2018-Feb-17 09:00N 35°23' E 139°46'5 9.8
2018-Feb-17 08:31N 35°18' E 139°45'510.5
2018-Feb-17 08:01N 35°13' E 139°47'510.6
2018-Feb-17 07:30N 35°08' E 139°46'510.4
2018-Feb-17 06:59N 35°03' E 139°42'611.4
2018-Feb-17 06:30N 34°60' E 139°37'1113.1
2018-Feb-17 05:40N 34°54' E 139°26'212.9
2018-Feb-17 05:29N 34°53' E 139°23'1013.0
2018-Feb-17 04:45N 34°47' E 139°14'313.2
2018-Feb-17 04:30N 34°45' E 139°11'712.6
2018-Feb-17 03:58N 34°40' E 139°05'511.7
2018-Feb-17 03:30N 34°37' E 139°00'712.0
2018-Feb-17 02:56N 34°35' E 138°52'611.9
2018-Feb-17 02:24N 34°34' E 138°45'511.9
2018-Feb-17 02:00N 34°34' E 138°39'611.7
2018-Feb-17 01:27N 34°34' E 138°31'911.7
2018-Feb-17 00:40N 34°34' E 138°20'312.4
2018-Feb-17 00:26N 34°34' E 138°16'812.7
2018-Feb-16 23:50N 34°34' E 138°07'412.1
2018-Feb-16 23:30N 34°35' E 138°02'611.6
2018-Feb-16 23:00N 34°35' E 137°55'2811.0
2018-Feb-16 20:26N 34°34' E 137°21'511.3
2018-Feb-16 20:01N 34°34' E 137°15'3310.9
2018-Feb-16 16:57N 34°09' E 136°48'87 8.7
2018-Feb-16 06:59N 33°46' E 135°07'511.4
2018-Feb-16 06:31N 33°50' E 135°02'611.6
2018-Feb-16 06:00N 33°54' E 134°58'611.4
2018-Feb-16 05:30N 33°58' E 134°53'611.5
2018-Feb-16 05:00N 34°03' E 134°49'611.8
2018-Feb-16 04:30N 34°08' E 134°45'612.5
2018-Feb-16 04:00N 34°13' E 134°40'611.9
2018-Feb-16 03:30N 34°17' E 134°35'610.8
2018-Feb-16 02:58N 34°19' E 134°29'511.2
2018-Feb-16 02:31N 34°21' E 134°23'35 9.1
2018-Feb-15 22:41N 34°18' E 133°41'48 8.8
2018-Feb-15 17:12N 34°01' E 132°46'2 8.5
2018-Feb-15 17:00N 33°60' E 132°45'4 8.5
2018-Feb-15 16:30N 33°56' E 132°42'4 8.7
2018-Feb-15 16:00N 33°54' E 132°38'5 9.7
2018-Feb-15 15:28N 33°50' E 132°33'510.2
2018-Feb-15 15:00N 33°47' E 132°29'710.5
2018-Feb-15 14:23N 33°43' E 132°23'510.7
2018-Feb-15 13:53N 33°40' E 132°17'410.8
2018-Feb-15 13:30N 33°37' E 132°13'610.9
2018-Feb-15 12:55N 33°34' E 132°07'511.0
2018-Feb-15 12:30N 33°31' E 132°03'611.5
2018-Feb-15 11:58N 33°28' E 131°57'611.7
2018-Feb-15 11:30N 33°24' E 131°51'611.6
2018-Feb-15 11:00N 33°21' E 131°46'611.2
2018-Feb-15 10:29N 33°17' E 131°40'1 0.2
2018-Feb-15 02:14N 33°16' E 131°40'0 0.7
2018-Feb-15 02:00N 33°16' E 131°40'  

Dump ship's entire track history